createdAt,value
2023-06-20T00:03:07.516Z,6.80
2023-06-20T00:06:29.246Z,7.77
2023-06-20T00:09:52.237Z,6.70
2023-06-20T00:13:14.201Z,7.87
2023-06-20T00:16:35.558Z,7.53
2023-06-20T00:19:56.866Z,7.70
2023-06-20T00:23:18.429Z,7.63
2023-06-20T00:26:40.986Z,7.63
2023-06-20T00:30:02.503Z,8.03
2023-06-20T00:33:23.616Z,7.73
2023-06-20T00:36:45.130Z,8.10
2023-06-20T00:40:08.424Z,7.97
2023-06-20T00:43:31.038Z,8.10
2023-06-20T00:46:52.647Z,8.13
2023-06-20T00:50:14.061Z,8.67
2023-06-20T00:53:35.418Z,8.87
2023-06-20T00:56:56.734Z,8.10
2023-06-20T01:00:19.971Z,8.03
2023-06-20T01:03:41.726Z,8.07
2023-06-20T01:07:09.200Z,7.77
2023-06-20T01:10:40.715Z,8.27
2023-06-20T01:14:09.997Z,7.73
2023-06-20T01:17:41.814Z,7.70
2023-06-20T01:21:10.014Z,7.33
2023-06-20T01:24:38.016Z,8.20
2023-06-20T01:28:08.423Z,8.00
2023-06-20T01:31:33.121Z,7.67
2023-06-20T01:34:59.104Z,8.17
2023-06-20T01:38:25.567Z,8.50
2023-06-20T01:41:49.769Z,8.23
2023-06-20T01:45:13.352Z,8.20
2023-06-20T01:48:36.852Z,8.13
2023-06-20T01:51:59.015Z,8.03
2023-06-20T01:55:23.120Z,7.60
2023-06-20T01:58:47.349Z,7.83
2023-06-20T02:02:09.518Z,7.80
2023-06-20T02:05:33.285Z,7.93
2023-06-20T02:08:56.132Z,7.70
2023-06-20T02:12:18.730Z,7.90
2023-06-20T02:15:43.584Z,8.10
2023-06-20T02:19:04.795Z,7.77
2023-06-20T02:22:28.431Z,7.97
2023-06-20T02:25:50.797Z,8.17
2023-06-20T02:29:13.426Z,7.30
2023-06-20T02:32:38.692Z,7.67
2023-06-20T02:36:02.323Z,8.27
2023-06-20T02:39:24.720Z,9.00
2023-06-20T02:42:46.547Z,8.13
2023-06-20T02:46:14.682Z,7.57
2023-06-20T02:49:44.132Z,7.80
2023-06-20T02:53:16.440Z,8.93
2023-06-20T02:56:40.206Z,8.23
2023-06-20T03:00:10.669Z,8.40
2023-06-20T03:03:36.055Z,9.10
2023-06-20T03:07:00.668Z,8.63
2023-06-20T03:10:24.122Z,8.57
2023-06-20T03:13:45.573Z,8.60
2023-06-20T03:17:07.329Z,8.97
2023-06-20T03:20:30.056Z,9.30
2023-06-20T03:23:52.616Z,9.67
2023-06-20T03:27:14.126Z,8.80
2023-06-20T03:30:35.790Z,8.90
2023-06-20T03:33:57.499Z,8.93
2023-06-20T03:37:19.029Z,8.47
2023-06-20T03:40:41.877Z,8.77
2023-06-20T03:44:03.504Z,9.00
2023-06-20T03:47:24.732Z,8.27
2023-06-20T03:50:46.094Z,9.30
2023-06-20T03:54:07.613Z,8.60
2023-06-20T03:57:30.577Z,10.40
2023-06-20T04:00:52.075Z,8.63
2023-06-20T04:04:15.304Z,8.80
2023-06-20T04:07:37.103Z,9.63
2023-06-20T04:11:00.561Z,8.40
2023-06-20T04:14:24.280Z,9.60
2023-06-20T04:17:46.726Z,10.17
2023-06-20T04:21:08.691Z,9.27
2023-06-20T04:24:30.047Z,9.33
2023-06-20T04:27:55.106Z,9.07
2023-06-20T04:31:18.288Z,8.80
2023-06-20T04:34:39.675Z,7.53
2023-06-20T04:38:02.845Z,8.93
2023-06-20T04:41:24.373Z,7.57
2023-06-20T04:44:46.090Z,8.50
2023-06-20T04:48:08.862Z,8.77
2023-06-20T04:51:30.563Z,8.87
2023-06-20T04:54:52.122Z,8.50
2023-06-20T04:58:14.248Z,8.60
2023-06-20T05:01:35.729Z,7.27
2023-06-20T05:04:58.511Z,7.43
2023-06-20T05:08:20.215Z,7.27
2023-06-20T05:11:41.707Z,6.77
2023-06-20T05:15:02.950Z,6.77
2023-06-20T05:18:24.246Z,7.30
2023-06-20T05:21:46.917Z,7.00
2023-06-20T05:25:09.011Z,6.13
2023-06-20T05:28:30.516Z,5.83
2023-06-20T05:31:52.120Z,6.00
2023-06-20T05:35:13.807Z,5.77
2023-06-20T05:38:37.905Z,5.80
2023-06-20T05:41:59.655Z,5.50
2023-06-20T05:45:21.226Z,4.57
2023-06-20T05:48:42.474Z,4.80
2023-06-20T05:52:03.927Z,4.83
2023-06-20T05:55:27.029Z,4.77
2023-06-20T05:58:48.608Z,5.13
2023-06-20T06:02:10.103Z,4.53
2023-06-20T06:05:31.535Z,4.20
2023-06-20T06:08:53.095Z,4.17
2023-06-20T06:12:16.105Z,4.00
2023-06-20T06:15:37.409Z,4.47
2023-06-20T06:18:58.584Z,4.13
2023-06-20T06:22:21.308Z,4.07
2023-06-20T06:25:46.898Z,4.40
2023-06-20T06:29:09.720Z,4.37
2023-06-20T06:32:31.109Z,4.40
2023-06-20T06:35:52.640Z,4.13
2023-06-20T06:39:14.409Z,4.10
2023-06-20T06:42:35.929Z,4.07
2023-06-20T06:45:58.736Z,4.37
2023-06-20T06:49:20.051Z,4.03
2023-06-20T06:52:42.684Z,3.63
2023-06-20T06:56:04.004Z,5.20
2023-06-20T06:59:25.495Z,4.23
2023-06-20T07:02:48.397Z,3.60
2023-06-20T07:06:10.191Z,3.80
2023-06-20T07:09:31.662Z,3.90
2023-06-20T07:12:54.845Z,3.83
2023-06-20T07:16:16.609Z,3.63
2023-06-20T07:19:39.488Z,4.00
2023-06-20T07:23:00.935Z,4.00
2023-06-20T07:26:22.418Z,3.70
2023-06-20T07:29:43.992Z,3.53
2023-06-20T07:33:07.162Z,3.70
2023-06-20T07:36:30.355Z,3.67
2023-06-20T07:39:51.713Z,3.57
2023-06-20T07:43:13.068Z,3.80
2023-06-20T07:46:34.915Z,3.33
2023-06-20T07:49:56.447Z,4.00
2023-06-20T07:53:20.282Z,3.57
2023-06-20T07:56:41.900Z,3.77
2023-06-20T08:00:10.206Z,3.57
2023-06-20T08:03:31.738Z,3.43
2023-06-20T08:06:53.707Z,3.50
2023-06-20T08:10:16.476Z,3.60
2023-06-20T08:13:38.155Z,3.70
2023-06-20T08:17:00.211Z,4.20
2023-06-20T08:20:21.911Z,3.73
2023-06-20T08:23:43.601Z,3.80
2023-06-20T08:27:06.724Z,3.57
2023-06-20T08:30:28.260Z,3.80
2023-06-20T08:33:49.985Z,3.40
2023-06-20T08:37:11.744Z,3.70
2023-06-20T08:40:33.409Z,3.70
2023-06-20T08:43:56.270Z,4.67
2023-06-20T08:47:17.504Z,4.10
2023-06-20T08:50:39.706Z,4.60
2023-06-20T08:54:04.582Z,4.17
2023-06-20T08:57:25.969Z,4.83
2023-06-20T09:00:50.020Z,3.70
2023-06-20T09:04:12.885Z,4.00
2023-06-20T09:07:39.363Z,3.90
2023-06-20T09:11:07.308Z,3.90
2023-06-20T09:14:30.199Z,4.53
2023-06-20T09:17:54.192Z,4.43
2023-06-20T09:21:17.749Z,4.00
2023-06-20T09:24:44.264Z,4.20
2023-06-20T09:28:15.878Z,5.13
2023-06-20T09:31:45.026Z,3.73
2023-06-20T09:35:09.691Z,3.97
2023-06-20T09:38:31.991Z,4.30
2023-06-20T09:41:54.594Z,4.07
2023-06-20T09:45:17.828Z,4.30
2023-06-20T09:48:41.279Z,3.97
2023-06-20T09:52:07.371Z,4.27
2023-06-20T09:55:29.069Z,4.70
2023-06-20T09:58:52.201Z,4.30
2023-06-20T10:02:15.007Z,4.33
2023-06-20T10:05:38.220Z,4.40
2023-06-20T10:09:02.306Z,4.13
2023-06-20T10:12:24.253Z,4.70
2023-06-20T10:15:45.698Z,4.43
2023-06-20T10:19:19.194Z,5.10
2023-06-20T10:22:44.777Z,5.03
2023-06-20T10:26:10.127Z,5.20
2023-06-20T10:29:40.443Z,5.50
2023-06-20T10:33:13.195Z,4.80
2023-06-20T10:36:35.817Z,4.80
2023-06-20T10:39:58.173Z,5.60
2023-06-20T10:43:24.035Z,5.33
2023-06-20T10:46:48.244Z,5.17
2023-06-20T10:50:11.562Z,5.33
2023-06-20T10:53:33.540Z,5.27
2023-06-20T10:56:54.859Z,5.20
2023-06-20T11:00:19.986Z,5.33
2023-06-20T11:03:42.858Z,6.13
2023-06-20T11:07:07.786Z,5.67
2023-06-20T11:10:30.938Z,5.30
2023-06-20T11:13:52.330Z,5.10
2023-06-20T11:17:15.307Z,5.43
2023-06-20T11:20:40.342Z,5.43
2023-06-20T11:24:02.633Z,5.27
2023-06-20T11:27:25.547Z,4.93
2023-06-20T11:30:48.564Z,5.33
2023-06-20T11:34:13.376Z,5.23
2023-06-20T11:37:34.900Z,5.00
2023-06-20T11:41:05.494Z,5.07
2023-06-20T11:44:28.457Z,5.10
2023-06-20T11:47:50.005Z,5.47
2023-06-20T11:51:14.472Z,5.30
2023-06-20T11:54:48.560Z,5.23
2023-06-20T11:58:10.859Z,5.17
2023-06-20T12:01:33.995Z,5.20
2023-06-20T12:04:59.539Z,5.97
2023-06-20T12:08:23.178Z,5.17
2023-06-20T12:11:48.531Z,4.80
2023-06-20T12:15:12.908Z,4.50
2023-06-20T12:18:34.066Z,5.27
2023-06-20T12:21:55.793Z,4.80
2023-06-20T12:25:18.444Z,5.20
2023-06-20T12:28:42.126Z,5.03
2023-06-20T12:32:03.453Z,5.00
2023-06-20T12:35:25.077Z,5.23
2023-06-20T12:38:46.585Z,5.17
2023-06-20T12:42:10.633Z,5.37
2023-06-20T12:45:32.006Z,5.60
2023-06-20T12:48:53.466Z,4.90
2023-06-20T12:52:14.896Z,5.30
2023-06-20T12:55:36.513Z,5.27
2023-06-20T12:59:01.527Z,5.17
2023-06-20T13:02:24.499Z,5.00
2023-06-20T13:05:46.228Z,5.00
2023-06-20T13:09:07.802Z,5.43
2023-06-20T13:12:29.109Z,5.23
2023-06-20T13:15:51.789Z,5.10
2023-06-20T13:19:15.358Z,5.77
2023-06-20T13:22:36.951Z,5.30
2023-06-20T13:25:58.215Z,6.07
2023-06-20T13:29:19.774Z,5.40
2023-06-20T13:32:42.509Z,5.20
2023-06-20T13:36:04.475Z,5.13
2023-06-20T13:39:30.588Z,5.30
2023-06-20T13:42:53.681Z,5.57
2023-06-20T13:46:15.122Z,5.67
2023-06-20T13:49:38.280Z,5.03
2023-06-20T13:52:59.576Z,5.57
2023-06-20T13:56:21.314Z,5.13
2023-06-20T13:59:44.706Z,5.50
2023-06-20T14:03:06.924Z,5.57
2023-06-20T14:06:30.543Z,4.90
2023-06-20T14:09:52.159Z,6.03
2023-06-20T14:13:13.968Z,5.60
2023-06-20T14:16:35.453Z,5.13
2023-06-20T14:19:56.881Z,5.57
2023-06-20T14:23:19.658Z,5.20
2023-06-20T14:26:41.518Z,5.60
2023-06-20T14:30:02.786Z,5.30
2023-06-20T14:33:25.628Z,5.10
2023-06-20T14:36:47.428Z,5.53
2023-06-20T14:40:11.212Z,5.27
2023-06-20T14:43:32.913Z,5.93
2023-06-20T14:46:54.513Z,6.27
2023-06-20T14:50:16.337Z,5.77
2023-06-20T14:53:37.580Z,5.87
2023-06-20T14:57:00.457Z,5.67
2023-06-20T15:00:22.287Z,5.80
2023-06-20T15:03:43.915Z,5.20
2023-06-20T15:07:06.023Z,5.00
2023-06-20T15:10:29.415Z,5.27
2023-06-20T15:13:52.425Z,5.57
2023-06-20T15:17:14.015Z,5.00
2023-06-20T15:20:35.997Z,5.37
2023-06-20T15:23:57.616Z,5.73
2023-06-20T15:27:19.290Z,5.63
2023-06-20T15:30:42.172Z,5.80
2023-06-20T15:34:03.913Z,6.07
2023-06-20T15:37:25.573Z,5.67
2023-06-20T15:40:46.976Z,5.43
2023-06-20T15:44:08.203Z,5.10
2023-06-20T15:47:30.980Z,5.30
2023-06-20T15:50:52.717Z,5.20
2023-06-20T15:54:14.011Z,5.20
2023-06-20T15:57:35.567Z,4.97
2023-06-20T16:00:57.174Z,4.70
2023-06-20T16:04:19.833Z,4.50
2023-06-20T16:07:40.943Z,5.20
2023-06-20T16:11:02.553Z,5.17
2023-06-20T16:14:24.206Z,4.97
2023-06-20T16:17:45.756Z,5.63
2023-06-20T16:21:09.822Z,5.07
2023-06-20T16:24:32.636Z,5.90
2023-06-20T16:27:54.289Z,5.73
2023-06-20T16:31:15.710Z,5.50
2023-06-20T16:34:37.408Z,6.20
2023-06-20T16:38:00.335Z,5.43
2023-06-20T16:41:21.810Z,5.77
2023-06-20T16:44:43.217Z,6.17
2023-06-20T16:48:04.562Z,5.80
2023-06-20T16:51:26.386Z,5.80
2023-06-20T16:54:49.106Z,5.17
2023-06-20T16:58:10.654Z,6.00
2023-06-20T17:01:32.171Z,5.77
2023-06-20T17:04:53.913Z,5.80
2023-06-20T17:08:15.307Z,5.83
2023-06-20T17:11:38.035Z,5.87
2023-06-20T17:14:59.783Z,5.37
2023-06-20T17:18:21.924Z,5.70
2023-06-20T17:21:43.158Z,5.90
2023-06-20T17:25:05.006Z,5.90
2023-06-20T17:28:27.902Z,5.73
2023-06-20T17:31:52.197Z,5.70
2023-06-20T17:35:13.644Z,6.00
2023-06-20T17:38:35.069Z,5.90
2023-06-20T17:41:56.748Z,6.17
2023-06-20T17:45:19.584Z,5.00
2023-06-20T17:48:42.631Z,5.87
2023-06-20T17:52:06.960Z,5.30
2023-06-20T17:55:28.838Z,5.87
2023-06-20T17:58:53.441Z,5.47
2023-06-20T18:02:17.739Z,5.53
2023-06-20T18:05:39.264Z,6.50
2023-06-20T18:09:00.535Z,6.03
2023-06-20T18:12:22.072Z,5.57
2023-06-20T18:15:43.488Z,6.20
2023-06-20T18:19:06.592Z,6.17
2023-06-20T18:22:27.875Z,6.60
2023-06-20T18:25:49.503Z,5.77
2023-06-20T18:29:11.037Z,6.87
2023-06-20T18:32:32.316Z,6.73
2023-06-20T18:35:55.299Z,6.93
2023-06-20T18:39:16.933Z,6.07
2023-06-20T18:42:38.430Z,6.80
2023-06-20T18:45:59.995Z,6.07
2023-06-20T18:49:21.412Z,5.67
2023-06-20T18:52:44.214Z,5.80
2023-06-20T18:56:05.625Z,6.27
2023-06-20T18:59:26.989Z,6.00
2023-06-20T19:02:48.506Z,5.70
2023-06-20T19:06:10.283Z,6.30
2023-06-20T19:09:37.186Z,6.40
2023-06-20T19:12:58.738Z,6.67
2023-06-20T19:16:22.601Z,7.60
2023-06-20T19:19:44.496Z,6.63
2023-06-20T19:23:06.551Z,6.93
2023-06-20T19:26:29.601Z,6.33
2023-06-20T19:29:50.892Z,6.00
2023-06-20T19:33:12.264Z,6.00
2023-06-20T19:36:34.332Z,5.10
2023-06-20T19:39:55.746Z,5.83
2023-06-20T19:43:18.552Z,5.37
2023-06-20T19:46:40.747Z,5.10
2023-06-20T19:50:02.220Z,4.63
2023-06-20T19:53:23.586Z,5.03
2023-06-20T19:56:44.918Z,5.10
2023-06-20T20:00:08.963Z,4.53
2023-06-20T20:03:30.433Z,5.07
2023-06-20T20:06:51.995Z,5.00
2023-06-20T20:10:13.237Z,5.10
2023-06-20T20:13:34.415Z,4.97
2023-06-20T20:16:58.123Z,5.17
2023-06-20T20:20:19.462Z,4.60
2023-06-20T20:23:44.295Z,4.73
2023-06-20T20:27:08.231Z,4.17
2023-06-20T20:30:30.037Z,4.83
2023-06-20T20:33:53.031Z,4.70
2023-06-20T20:37:14.465Z,3.70
2023-06-20T20:40:35.853Z,5.17
2023-06-20T20:43:57.279Z,5.70
2023-06-20T20:47:18.940Z,5.90
2023-06-20T20:50:41.924Z,5.27
2023-06-20T20:54:03.644Z,4.70
2023-06-20T20:57:25.427Z,4.30
2023-06-20T21:00:47.013Z,4.60
2023-06-20T21:04:09.198Z,4.90
2023-06-20T21:07:31.818Z,3.93
2023-06-20T21:10:53.517Z,4.13
2023-06-20T21:14:14.777Z,4.27
2023-06-20T21:17:36.271Z,4.17
2023-06-20T21:20:57.726Z,3.73
2023-06-20T21:24:20.733Z,3.77
2023-06-20T21:27:42.394Z,4.00
2023-06-20T21:31:04.354Z,4.73
2023-06-20T21:34:25.976Z,4.10
2023-06-20T21:37:47.526Z,4.10
2023-06-20T21:41:10.196Z,5.90
2023-06-20T21:44:32.016Z,4.83
2023-06-20T21:47:53.748Z,4.87
2023-06-20T21:51:15.661Z,5.17
2023-06-20T21:54:37.175Z,4.43
2023-06-20T21:58:00.055Z,4.30
2023-06-20T22:01:21.547Z,4.70
2023-06-20T22:04:43.053Z,4.60
2023-06-20T22:08:04.310Z,4.07
2023-06-20T22:11:25.951Z,4.20
2023-06-20T22:14:48.822Z,4.50
2023-06-20T22:18:10.289Z,4.50
2023-06-20T22:21:31.937Z,4.73
2023-06-20T22:24:53.608Z,4.47
2023-06-20T22:28:15.060Z,4.53
2023-06-20T22:31:38.502Z,4.70
2023-06-20T22:35:00.214Z,5.17
2023-06-20T22:38:22.130Z,4.77
2023-06-20T22:41:43.688Z,4.93
2023-06-20T22:45:06.008Z,4.87
2023-06-20T22:48:28.813Z,5.33
2023-06-20T22:51:52.756Z,5.53
2023-06-20T22:55:15.326Z,5.10
2023-06-20T22:58:36.964Z,5.33
2023-06-20T23:01:59.521Z,5.33
2023-06-20T23:05:23.407Z,5.60
2023-06-20T23:08:45.102Z,3.20
2023-06-20T23:12:07.307Z,2.60
2023-06-20T23:15:28.781Z,3.17
2023-06-20T23:18:50.540Z,2.23
2023-06-20T23:22:13.724Z,1.57
2023-06-20T23:25:41.265Z,2.67
2023-06-20T23:29:02.897Z,1.60
2023-06-20T23:32:27.316Z,1.30
2023-06-20T23:35:49.159Z,1.07
2023-06-20T23:39:11.816Z,1.97
2023-06-20T23:42:35.932Z,1.53
2023-06-20T23:45:59.540Z,2.07
2023-06-20T23:49:21.957Z,1.70
2023-06-20T23:52:43.740Z,2.40
2023-06-20T23:56:06.449Z,2.20
2023-06-20T23:59:28.004Z,1.50
